createdAt,value
2019-03-06T00:00:00.064Z,5.84
2019-03-06T00:02:30.824Z,5.81
2019-03-06T00:05:02.091Z,5.91
2019-03-06T00:07:32.850Z,5.83
2019-03-06T00:10:16.429Z,5.92
2019-03-06T00:12:47.201Z,5.79
2019-03-06T00:15:17.970Z,5.79
2019-03-06T00:17:48.731Z,5.84
2019-03-06T00:20:19.895Z,5.78
2019-03-06T00:22:50.754Z,5.69
2019-03-06T00:25:21.522Z,5.61
2019-03-06T00:27:52.277Z,5.57
2019-03-06T00:30:23.046Z,5.53
2019-03-06T00:32:53.806Z,5.49
2019-03-06T00:35:38.373Z,5.51
2019-03-06T00:38:09.135Z,5.47
2019-03-06T00:40:47.839Z,5.53
2019-03-06T00:43:18.609Z,5.49
2019-03-06T00:45:49.373Z,5.38
2019-03-06T00:48:20.128Z,5.35
2019-03-06T00:50:51.004Z,5.40
2019-03-06T00:53:21.758Z,5.47
2019-03-06T00:55:52.521Z,5.43
2019-03-06T00:58:25.028Z,5.42
2019-03-06T01:00:56.066Z,5.42
2019-03-06T01:03:26.930Z,5.46
2019-03-06T01:05:57.690Z,5.41
2019-03-06T01:08:28.445Z,5.46
2019-03-06T01:10:59.214Z,5.35
2019-03-06T01:13:29.980Z,5.41
2019-03-06T01:16:00.761Z,5.47
2019-03-06T01:18:31.518Z,5.50
2019-03-06T01:21:02.685Z,5.54
2019-03-06T01:23:33.450Z,5.58
2019-03-06T01:26:04.354Z,5.46
2019-03-06T01:28:35.120Z,5.48
2019-03-06T01:31:05.955Z,5.51
2019-03-06T01:33:42.514Z,5.66
2019-03-06T01:36:15.190Z,5.68
2019-03-06T01:38:56.446Z,5.67
2019-03-06T01:41:29.124Z,5.63
2019-03-06T01:44:16.947Z,5.65
2019-03-06T01:46:47.726Z,5.70
2019-03-06T01:49:18.483Z,5.65
2019-03-06T01:51:49.254Z,5.52
2019-03-06T01:54:20.011Z,5.54
2019-03-06T01:56:50.786Z,5.48
2019-03-06T01:59:21.552Z,5.34
2019-03-06T02:01:52.309Z,5.35
2019-03-06T02:04:23.074Z,5.24
2019-03-06T02:06:53.829Z,5.04
2019-03-06T02:09:26.002Z,5.09
2019-03-06T02:11:57.070Z,5.13
2019-03-06T02:14:27.841Z,5.25
2019-03-06T02:16:58.598Z,5.23
2019-03-06T02:19:29.361Z,5.25
2019-03-06T02:22:00.119Z,5.13
2019-03-06T02:24:30.890Z,5.08
2019-03-06T02:27:01.647Z,5.00
2019-03-06T02:29:32.415Z,4.89
2019-03-06T02:32:03.175Z,4.87
2019-03-06T02:34:34.141Z,4.87
2019-03-06T02:37:04.897Z,4.86
2019-03-06T02:39:35.662Z,4.98
2019-03-06T02:42:06.424Z,5.07
2019-03-06T02:44:39.958Z,5.25
2019-03-06T02:47:09.864Z,5.27
2019-03-06T02:49:40.632Z,5.28
2019-03-06T02:52:11.389Z,5.27
2019-03-06T02:54:42.163Z,5.09
2019-03-06T02:57:13.228Z,5.33
2019-03-06T02:59:45.902Z,5.41
2019-03-06T03:02:30.714Z,5.42
2019-03-06T03:05:06.133Z,5.45
2019-03-06T03:07:36.900Z,5.41
2019-03-06T03:10:08.271Z,5.39
2019-03-06T03:12:39.249Z,5.34
2019-03-06T03:15:10.015Z,5.39
2019-03-06T03:17:40.876Z,5.39
2019-03-06T03:20:11.743Z,5.46
2019-03-06T03:22:42.505Z,5.42
2019-03-06T03:25:13.282Z,5.50
2019-03-06T03:27:44.147Z,5.46
2019-03-06T03:30:14.942Z,5.49
2019-03-06T03:32:45.721Z,5.54
2019-03-06T03:35:16.478Z,5.52
2019-03-06T03:37:47.267Z,5.62
2019-03-06T03:40:18.106Z,5.55
2019-03-06T03:42:48.866Z,5.54
2019-03-06T03:45:19.632Z,5.50
2019-03-06T03:47:50.388Z,5.52
2019-03-06T03:50:21.154Z,5.50
2019-03-06T03:52:51.910Z,5.54
2019-03-06T03:55:22.682Z,5.45
2019-03-06T03:57:53.435Z,5.36
2019-03-06T04:00:24.209Z,5.41
2019-03-06T04:02:55.273Z,5.47
2019-03-06T04:05:26.039Z,5.64
2019-03-06T04:07:56.799Z,5.47
2019-03-06T04:10:27.567Z,5.56
2019-03-06T04:12:58.335Z,5.59
2019-03-06T04:15:29.106Z,5.65
2019-03-06T04:17:59.859Z,5.46
2019-03-06T04:20:30.623Z,5.38
2019-03-06T04:23:01.380Z,5.36
2019-03-06T04:25:32.143Z,5.28
2019-03-06T04:28:02.904Z,5.30
2019-03-06T04:30:33.676Z,5.30
2019-03-06T04:33:04.427Z,5.36
2019-03-06T04:35:35.189Z,5.35
2019-03-06T04:38:06.149Z,5.41
2019-03-06T04:40:36.919Z,5.39
2019-03-06T04:43:07.675Z,5.44
2019-03-06T04:45:38.449Z,5.45
2019-03-06T04:48:09.203Z,5.54
2019-03-06T04:50:39.972Z,5.58
2019-03-06T04:53:10.720Z,5.65
2019-03-06T04:55:41.485Z,5.57
2019-03-06T04:58:12.241Z,5.66
2019-03-06T05:00:43.007Z,5.65
2019-03-06T05:03:13.765Z,5.74
2019-03-06T05:05:44.563Z,5.73
2019-03-06T05:08:15.318Z,5.70
2019-03-06T05:10:46.089Z,5.75
2019-03-06T05:13:16.858Z,5.78
2019-03-06T05:15:47.625Z,5.81
2019-03-06T05:18:25.882Z,5.81
2019-03-06T05:20:56.650Z,5.78
2019-03-06T05:23:27.407Z,5.83
2019-03-06T05:25:58.173Z,5.82
2019-03-06T05:28:28.937Z,5.78
2019-03-06T05:30:59.704Z,5.77
2019-03-06T05:33:30.454Z,5.76
2019-03-06T05:36:10.794Z,5.72
2019-03-06T05:38:48.049Z,5.77
2019-03-06T05:41:18.950Z,5.85
2019-03-06T05:43:49.809Z,5.98
2019-03-06T05:46:20.576Z,5.92
2019-03-06T05:48:51.330Z,5.83
2019-03-06T05:51:22.114Z,5.85
2019-03-06T05:53:52.973Z,5.80
2019-03-06T05:56:23.731Z,5.90
2019-03-06T05:58:54.516Z,5.88
2019-03-06T06:01:25.357Z,5.92
2019-03-06T06:03:56.125Z,5.87
2019-03-06T06:06:26.884Z,5.97
2019-03-06T06:08:57.646Z,5.79
2019-03-06T06:11:28.402Z,5.79
2019-03-06T06:13:59.486Z,5.79
2019-03-06T06:16:30.283Z,5.86
2019-03-06T06:19:01.856Z,5.93
2019-03-06T06:21:46.549Z,5.86
2019-03-06T06:24:17.421Z,5.91
2019-03-06T06:26:48.178Z,5.94
2019-03-06T06:29:18.943Z,5.85
2019-03-06T06:31:49.706Z,5.97
2019-03-06T06:34:20.686Z,5.86
2019-03-06T06:36:51.442Z,5.85
2019-03-06T06:39:22.215Z,5.75
2019-03-06T06:41:53.075Z,5.76
2019-03-06T06:44:23.841Z,5.80
2019-03-06T06:46:54.594Z,5.92
2019-03-06T06:49:25.370Z,5.90
2019-03-06T06:52:02.888Z,5.96
2019-03-06T06:54:56.012Z,6.03
2019-03-06T06:57:50.548Z,6.12
2019-03-06T07:00:30.022Z,6.05
2019-03-06T07:03:15.273Z,6.00
2019-03-06T07:05:47.942Z,5.99
2019-03-06T07:08:32.406Z,6.05
2019-03-06T07:11:05.077Z,6.04
2019-03-06T07:13:49.719Z,5.97
2019-03-06T07:16:25.170Z,5.94
2019-03-06T07:19:00.610Z,5.84
2019-03-06T07:21:33.276Z,5.91
2019-03-06T07:24:22.998Z,6.03
2019-03-06T07:27:05.374Z,6.01
2019-03-06T07:29:43.602Z,6.09
2019-03-06T07:32:32.988Z,6.27
2019-03-06T07:35:55.710Z,6.21
2019-03-06T07:38:27.275Z,6.32
2019-03-06T07:41:02.988Z,6.33
2019-03-06T07:43:52.394Z,6.43
2019-03-06T07:46:25.065Z,6.38
2019-03-06T07:49:03.461Z,6.41
2019-03-06T07:51:38.755Z,6.41
2019-03-06T07:54:29.840Z,6.33
2019-03-06T07:57:11.834Z,6.43
2019-03-06T07:59:42.596Z,6.48
2019-03-06T08:02:36.587Z,6.48
2019-03-06T08:05:08.761Z,6.50
2019-03-06T08:07:39.513Z,6.57
2019-03-06T08:10:14.088Z,6.75
2019-03-06T08:12:55.602Z,6.71
2019-03-06T08:15:30.911Z,6.72
2019-03-06T08:18:03.581Z,6.69
2019-03-06T08:20:36.267Z,6.71
2019-03-06T08:23:08.954Z,6.73
2019-03-06T08:25:46.076Z,6.84
2019-03-06T08:28:16.851Z,6.78
2019-03-06T08:31:07.682Z,6.67
2019-03-06T08:33:38.441Z,6.78
2019-03-06T08:36:09.210Z,6.62
2019-03-06T08:38:39.973Z,6.60
2019-03-06T08:41:10.766Z,6.74
2019-03-06T08:43:41.514Z,6.77
2019-03-06T08:46:20.435Z,6.95
2019-03-06T08:49:08.223Z,6.86
2019-03-06T08:51:40.909Z,6.69
2019-03-06T08:54:22.155Z,6.74
2019-03-06T08:57:11.206Z,6.76
2019-03-06T08:59:58.702Z,6.49
2019-03-06T09:02:31.386Z,6.33
2019-03-06T09:05:20.890Z,6.45
2019-03-06T09:07:53.566Z,6.49
2019-03-06T09:10:29.026Z,6.54
2019-03-06T09:13:18.174Z,6.64
2019-03-06T09:15:59.669Z,6.80
2019-03-06T09:18:32.634Z,6.71
2019-03-06T09:21:11.354Z,6.68
2019-03-06T09:23:44.018Z,6.70
2019-03-06T09:26:16.690Z,6.63
2019-03-06T09:29:04.319Z,6.65
2019-03-06T09:31:36.988Z,6.61
2019-03-06T09:34:12.676Z,6.63
2019-03-06T09:37:01.723Z,6.60
2019-03-06T09:39:37.155Z,6.74
2019-03-06T09:42:26.607Z,6.88
2019-03-06T09:45:08.114Z,6.88
2019-03-06T09:47:40.813Z,7.03
2019-03-06T09:50:30.371Z,7.09
2019-03-06T09:53:08.602Z,7.18
2019-03-06T09:55:47.284Z,7.25
2019-03-06T09:58:19.953Z,7.36
2019-03-06T10:00:52.620Z,7.34
2019-03-06T10:03:25.318Z,7.45
2019-03-06T10:06:04.004Z,7.78
2019-03-06T10:08:51.427Z,7.94
2019-03-06T10:11:29.939Z,7.98
2019-03-06T10:14:14.482Z,8.11
2019-03-06T10:16:49.689Z,8.13
2019-03-06T10:19:22.649Z,8.21
2019-03-06T10:21:53.417Z,8.62
2019-03-06T10:24:24.177Z,9.37
2019-03-06T10:26:55.216Z,10.09
2019-03-06T10:29:26.395Z,10.76
2019-03-06T10:31:57.266Z,11.39
2019-03-06T10:34:28.243Z,11.72
2019-03-06T10:36:59.015Z,11.72
2019-03-06T10:39:29.772Z,11.58
2019-03-06T10:42:00.538Z,11.90
2019-03-06T10:44:31.293Z,12.06
2019-03-06T10:47:02.063Z,11.94
2019-03-06T10:49:33.029Z,12.06
2019-03-06T10:52:03.891Z,12.09
2019-03-06T10:54:37.914Z,12.15
2019-03-06T10:57:07.643Z,12.65
2019-03-06T10:59:38.945Z,12.91
2019-03-06T11:02:09.823Z,13.21
2019-03-06T11:04:45.951Z,13.21
2019-03-06T11:07:17.325Z,13.45
2019-03-06T11:09:48.094Z,13.44
2019-03-06T11:12:18.961Z,13.28
2019-03-06T11:14:49.742Z,13.42
2019-03-06T11:17:20.724Z,13.53
2019-03-06T11:19:52.661Z,13.55
2019-03-06T11:22:23.402Z,13.47
2019-03-06T11:24:54.380Z,13.68
2019-03-06T11:27:25.239Z,13.58
2019-03-06T11:29:56.018Z,13.23
2019-03-06T11:32:26.782Z,13.20
2019-03-06T11:34:57.777Z,13.14
2019-03-06T11:37:28.538Z,13.04
2019-03-06T11:39:59.309Z,13.07
2019-03-06T11:42:30.066Z,12.90
2019-03-06T11:45:00.874Z,12.92
2019-03-06T11:47:31.608Z,12.97
2019-03-06T11:50:04.503Z,12.92
2019-03-06T11:52:35.358Z,13.07
2019-03-06T11:55:08.017Z,13.08
2019-03-06T11:57:39.379Z,13.11
2019-03-06T12:00:15.857Z,13.17
2019-03-06T12:02:46.842Z,13.22
2019-03-06T12:05:17.630Z,13.29
2019-03-06T12:07:48.483Z,13.33
2019-03-06T12:10:19.252Z,13.43
2019-03-06T12:12:50.412Z,13.44
2019-03-06T12:15:21.311Z,13.37
2019-03-06T12:17:52.090Z,13.28
2019-03-06T12:20:23.083Z,13.18
2019-03-06T12:22:53.960Z,13.12
2019-03-06T12:25:24.956Z,13.09
2019-03-06T12:27:55.710Z,13.04
2019-03-06T12:30:26.477Z,13.07
2019-03-06T12:32:57.234Z,12.99
2019-03-06T12:35:28.009Z,12.87
2019-03-06T12:37:58.773Z,12.93
2019-03-06T12:40:31.241Z,12.93
2019-03-06T12:43:01.999Z,13.04
2019-03-06T12:45:32.807Z,13.07
2019-03-06T12:48:12.200Z,12.97
2019-03-06T12:50:42.971Z,13.03
2019-03-06T12:53:13.726Z,12.93
2019-03-06T12:55:44.497Z,12.95
2019-03-06T12:58:15.256Z,13.03
2019-03-06T13:00:46.029Z,12.98
2019-03-06T13:03:18.289Z,12.99
2019-03-06T13:05:49.191Z,12.99
2019-03-06T13:08:20.088Z,12.73
2019-03-06T13:10:50.958Z,12.87
2019-03-06T13:13:21.728Z,12.82
2019-03-06T13:15:52.506Z,12.81
2019-03-06T13:18:23.263Z,12.75
2019-03-06T13:20:54.036Z,12.82
2019-03-06T13:23:25.016Z,12.82
2019-03-06T13:25:56.074Z,12.84
2019-03-06T13:28:26.859Z,12.79
2019-03-06T13:30:57.722Z,12.75
2019-03-06T13:33:42.870Z,12.74
2019-03-06T13:36:13.730Z,12.61
2019-03-06T13:38:44.504Z,12.69
2019-03-06T13:41:15.279Z,12.58
2019-03-06T13:43:46.053Z,12.68
2019-03-06T13:46:16.806Z,12.70
2019-03-06T13:48:47.784Z,12.67
2019-03-06T13:51:18.531Z,12.70
2019-03-06T13:53:49.323Z,12.73
2019-03-06T13:56:20.088Z,12.71
2019-03-06T13:58:50.858Z,12.71
2019-03-06T14:01:21.620Z,12.75
2019-03-06T14:03:52.693Z,12.73
2019-03-06T14:06:23.457Z,12.73
2019-03-06T14:08:54.225Z,12.75
2019-03-06T14:11:25.087Z,12.72
2019-03-06T14:13:55.867Z,12.66
2019-03-06T14:16:26.724Z,12.70
2019-03-06T14:18:57.596Z,12.70
2019-03-06T14:21:28.355Z,12.71
2019-03-06T14:23:59.593Z,12.70
2019-03-06T14:26:30.362Z,12.79
2019-03-06T14:29:01.134Z,12.80
2019-03-06T14:31:31.896Z,12.77
2019-03-06T14:34:02.666Z,12.71
2019-03-06T14:36:33.523Z,12.77
2019-03-06T14:39:22.395Z,12.77
2019-03-06T14:41:53.658Z,12.78
2019-03-06T14:44:24.426Z,12.57
2019-03-06T14:46:55.188Z,12.53
2019-03-06T14:49:25.976Z,12.51
2019-03-06T14:51:56.923Z,12.53
2019-03-06T14:54:27.698Z,12.51
2019-03-06T14:56:58.459Z,12.43
2019-03-06T14:59:29.222Z,12.54
2019-03-06T15:01:59.982Z,12.53
2019-03-06T15:04:30.949Z,12.58
2019-03-06T15:07:01.748Z,12.63
2019-03-06T15:09:32.484Z,12.64
2019-03-06T15:12:03.250Z,12.58
2019-03-06T15:14:36.300Z,12.55
2019-03-06T15:17:06.707Z,12.58
2019-03-06T15:19:39.196Z,12.63
2019-03-06T15:22:10.017Z,12.63
2019-03-06T15:24:41.803Z,12.58
2019-03-06T15:27:12.742Z,12.60
2019-03-06T15:29:43.706Z,12.64
2019-03-06T15:32:15.409Z,12.67
2019-03-06T15:34:46.181Z,12.58
2019-03-06T15:37:16.938Z,12.56
2019-03-06T15:39:48.856Z,12.37
2019-03-06T15:42:19.697Z,12.59
2019-03-06T15:44:50.489Z,12.50
2019-03-06T15:47:21.250Z,12.49
2019-03-06T15:49:52.022Z,12.44
2019-03-06T15:52:22.779Z,12.36
2019-03-06T15:54:53.668Z,12.41
2019-03-06T15:57:24.418Z,12.35
2019-03-06T15:59:55.286Z,12.33
2019-03-06T16:02:26.851Z,12.29
2019-03-06T16:04:57.621Z,12.26
2019-03-06T16:07:28.411Z,12.27
2019-03-06T16:09:59.158Z,12.16
2019-03-06T16:12:29.930Z,12.09
2019-03-06T16:15:00.725Z,12.09
2019-03-06T16:17:31.647Z,12.08
2019-03-06T16:20:14.483Z,12.06
2019-03-06T16:22:46.048Z,12.06
2019-03-06T16:25:16.865Z,11.97
2019-03-06T16:27:47.695Z,11.90
2019-03-06T16:30:23.622Z,12.03
2019-03-06T16:32:54.382Z,11.95
2019-03-06T16:35:25.252Z,11.82
2019-03-06T16:37:56.414Z,11.75
2019-03-06T16:40:27.196Z,11.67
2019-03-06T16:42:58.052Z,11.66
2019-03-06T16:45:28.956Z,11.62
2019-03-06T16:47:59.802Z,11.61
2019-03-06T16:50:30.674Z,11.53
2019-03-06T16:53:01.434Z,11.49
2019-03-06T16:55:32.303Z,11.43
2019-03-06T16:58:03.167Z,11.41
2019-03-06T17:00:35.041Z,11.38
2019-03-06T17:03:07.802Z,11.38
2019-03-06T17:05:39.279Z,11.30
2019-03-06T17:08:10.055Z,11.26
2019-03-06T17:10:40.822Z,11.29
2019-03-06T17:13:11.689Z,11.17
2019-03-06T17:15:42.504Z,11.15
2019-03-06T17:18:13.563Z,11.20
2019-03-06T17:20:44.384Z,11.10
2019-03-06T17:23:15.328Z,11.15
2019-03-06T17:25:46.261Z,11.13
2019-03-06T17:28:17.019Z,11.02
2019-03-06T17:30:47.892Z,11.00
2019-03-06T17:33:18.962Z,10.93
2019-03-06T17:35:49.810Z,10.91
2019-03-06T17:38:20.642Z,10.86
2019-03-06T17:40:51.581Z,10.83
2019-03-06T17:43:22.353Z,10.86
2019-03-06T17:45:53.927Z,10.78
2019-03-06T17:48:24.801Z,10.75
2019-03-06T17:50:55.650Z,10.69
2019-03-06T17:53:27.386Z,10.68
2019-03-06T17:55:58.355Z,10.67
2019-03-06T17:58:29.108Z,10.70
2019-03-06T18:01:01.786Z,10.64
2019-03-06T18:03:34.660Z,10.58
2019-03-06T18:06:05.535Z,10.52
2019-03-06T18:08:36.598Z,10.52
2019-03-06T18:11:07.362Z,10.55
2019-03-06T18:13:38.132Z,10.56
2019-03-06T18:16:08.903Z,10.52
2019-03-06T18:18:39.666Z,10.49
2019-03-06T18:21:10.438Z,10.50
2019-03-06T18:23:41.205Z,10.47
2019-03-06T18:26:11.981Z,10.47
2019-03-06T18:28:42.732Z,10.42
2019-03-06T18:31:13.501Z,10.41
2019-03-06T18:33:44.262Z,10.43
2019-03-06T18:36:15.236Z,10.43
2019-03-06T18:38:45.990Z,10.38
2019-03-06T18:41:16.761Z,10.32
2019-03-06T18:43:47.520Z,10.29
2019-03-06T18:46:18.289Z,10.30
2019-03-06T18:48:49.380Z,10.28
2019-03-06T18:51:20.152Z,10.31
2019-03-06T18:53:50.910Z,10.30
2019-03-06T18:56:21.674Z,10.24
2019-03-06T18:58:52.505Z,10.26
2019-03-06T19:01:23.495Z,10.24
2019-03-06T19:03:55.792Z,10.19
2019-03-06T19:06:26.623Z,10.17
2019-03-06T19:08:57.383Z,10.21
2019-03-06T19:11:28.147Z,10.14
2019-03-06T19:13:58.985Z,10.04
2019-03-06T19:16:29.753Z,10.01
2019-03-06T19:19:00.515Z,9.98
2019-03-06T19:21:31.303Z,9.95
2019-03-06T19:24:02.157Z,9.97
2019-03-06T19:26:33.338Z,9.94
2019-03-06T19:29:05.574Z,10.05
2019-03-06T19:31:36.486Z,9.94
2019-03-06T19:34:07.241Z,9.89
2019-03-06T19:36:38.036Z,9.88
2019-03-06T19:39:08.785Z,9.82
2019-03-06T19:41:39.747Z,9.85
2019-03-06T19:44:10.527Z,9.80
2019-03-06T19:46:41.295Z,8.62
2019-03-06T19:49:12.074Z,9.73
2019-03-06T19:51:51.266Z,9.62
2019-03-06T19:54:15.626Z,9.66
2019-03-06T19:56:46.646Z,9.48
2019-03-06T19:59:17.450Z,9.49
2019-03-06T20:01:48.217Z,9.46
2019-03-06T20:04:18.992Z,9.44
2019-03-06T20:06:49.745Z,9.47
2019-03-06T20:09:24.933Z,9.39
2019-03-06T20:11:55.812Z,9.46
2019-03-06T20:14:26.687Z,9.35
2019-03-06T20:16:57.541Z,9.23
2019-03-06T20:19:28.577Z,9.27
2019-03-06T20:21:59.340Z,9.25
2019-03-06T20:24:30.134Z,9.16
2019-03-06T20:27:00.908Z,9.11
2019-03-06T20:29:31.747Z,9.12
2019-03-06T20:32:02.633Z,9.15
2019-03-06T20:34:33.796Z,9.12
2019-03-06T20:37:04.565Z,9.07
2019-03-06T20:39:35.517Z,9.02
2019-03-06T20:42:06.360Z,9.08
2019-03-06T20:44:37.194Z,9.07
2019-03-06T20:47:07.950Z,9.13
2019-03-06T20:49:38.724Z,9.03
2019-03-06T20:52:09.527Z,9.00
2019-03-06T20:54:40.943Z,8.93
2019-03-06T20:57:11.863Z,8.90
2019-03-06T20:59:42.937Z,8.92
2019-03-06T21:02:14.007Z,8.83
2019-03-06T21:04:44.787Z,8.89
2019-03-06T21:07:15.544Z,8.80
2019-03-06T21:09:46.392Z,8.70
2019-03-06T21:12:17.164Z,8.71
2019-03-06T21:14:47.933Z,8.70
2019-03-06T21:17:18.690Z,8.65
2019-03-06T21:19:49.666Z,8.68
2019-03-06T21:22:20.418Z,8.70
2019-03-06T21:24:51.186Z,8.79
2019-03-06T21:27:21.946Z,8.78
2019-03-06T21:29:52.715Z,8.70
2019-03-06T21:32:23.474Z,8.68
2019-03-06T21:34:54.339Z,8.61
2019-03-06T21:37:25.135Z,8.65
2019-03-06T21:39:56.605Z,8.70
2019-03-06T21:42:27.411Z,8.68
2019-03-06T21:44:58.195Z,8.67
2019-03-06T21:47:29.170Z,8.65
2019-03-06T21:49:59.938Z,8.61
2019-03-06T21:52:30.885Z,8.56
2019-03-06T21:55:01.966Z,8.50
2019-03-06T21:57:33.093Z,8.56
2019-03-06T22:00:07.754Z,8.51
2019-03-06T22:02:38.522Z,8.46
2019-03-06T22:05:09.296Z,8.39
2019-03-06T22:07:40.251Z,8.45
2019-03-06T22:10:12.368Z,8.43
2019-03-06T22:12:43.454Z,8.43
2019-03-06T22:15:21.435Z,8.41
2019-03-06T22:17:52.171Z,8.40
2019-03-06T22:20:22.979Z,8.36
2019-03-06T22:22:53.779Z,8.45
2019-03-06T22:25:24.575Z,8.37
2019-03-06T22:27:55.403Z,8.40
2019-03-06T22:30:26.172Z,8.33
2019-03-06T22:32:56.930Z,8.23
2019-03-06T22:35:27.710Z,8.21
2019-03-06T22:37:58.778Z,8.19
2019-03-06T22:40:29.598Z,8.19
2019-03-06T22:43:00.362Z,8.17
2019-03-06T22:45:31.163Z,8.16
2019-03-06T22:48:01.951Z,8.13
2019-03-06T22:50:32.767Z,8.09
2019-03-06T22:53:03.562Z,8.13
2019-03-06T22:55:34.346Z,8.09
2019-03-06T22:58:05.137Z,8.07
2019-03-06T23:00:47.074Z,8.05
2019-03-06T23:03:18.484Z,8.05
2019-03-06T23:05:49.489Z,8.10
2019-03-06T23:08:20.378Z,8.10
2019-03-06T23:10:51.182Z,7.79
2019-03-06T23:13:21.991Z,8.07
2019-03-06T23:15:52.772Z,8.09
2019-03-06T23:18:23.595Z,8.09
2019-03-06T23:20:54.410Z,8.04
2019-03-06T23:23:25.197Z,8.06
2019-03-06T23:25:56.473Z,8.13
2019-03-06T23:28:27.302Z,8.08
2019-03-06T23:30:58.119Z,8.12
2019-03-06T23:33:28.930Z,8.07
2019-03-06T23:35:59.790Z,8.03
2019-03-06T23:38:30.598Z,8.10
2019-03-06T23:41:01.432Z,8.08
2019-03-06T23:43:32.256Z,8.11
2019-03-06T23:46:03.168Z,8.11
2019-03-06T23:48:33.990Z,8.09
2019-03-06T23:51:06.715Z,8.00
2019-03-06T23:53:45.249Z,7.98
2019-03-06T23:56:16.076Z,7.91
2019-03-06T23:58:46.893Z,7.96
